createdAt,value
2019-03-19T00:00:13.589Z,0.00
2019-03-19T00:02:42.074Z,0.10
2019-03-19T00:05:10.561Z,0.10
2019-03-19T00:07:39.085Z,0.10
2019-03-19T00:10:08.972Z,0.10
2019-03-19T00:12:37.553Z,0.10
2019-03-19T00:15:10.841Z,0.10
2019-03-19T00:17:39.308Z,0.20
2019-03-19T00:20:11.155Z,0.10
2019-03-19T00:22:39.622Z,0.20
2019-03-19T00:25:08.269Z,0.20
2019-03-19T00:27:37.055Z,0.20
2019-03-19T00:30:08.560Z,0.20
2019-03-19T00:32:37.051Z,0.30
2019-03-19T00:35:06.929Z,0.30
2019-03-19T00:37:35.412Z,0.30
2019-03-19T00:40:06.285Z,0.30
2019-03-19T00:42:34.727Z,0.30
2019-03-19T00:45:03.338Z,0.30
2019-03-19T00:47:31.822Z,0.40
2019-03-19T00:50:00.345Z,0.40
2019-03-19T00:52:28.931Z,0.40
2019-03-19T00:54:57.391Z,0.40
2019-03-19T00:57:25.842Z,0.50
2019-03-19T00:59:54.295Z,0.50
2019-03-19T01:02:22.749Z,0.40
2019-03-19T01:04:51.271Z,0.40
2019-03-19T01:07:19.716Z,0.50
2019-03-19T01:09:48.215Z,0.40
2019-03-19T01:12:16.666Z,0.40
2019-03-19T01:14:45.114Z,0.40
2019-03-19T01:17:13.655Z,0.40
2019-03-19T01:19:42.097Z,0.40
2019-03-19T01:22:10.575Z,0.30
2019-03-19T01:24:39.034Z,0.30
2019-03-19T01:27:07.657Z,0.30
2019-03-19T01:29:36.183Z,0.30
2019-03-19T01:32:04.693Z,0.30
2019-03-19T01:34:33.167Z,0.30
2019-03-19T01:37:01.685Z,0.30
2019-03-19T01:39:30.154Z,0.20
2019-03-19T01:41:58.660Z,0.10
2019-03-19T01:44:27.102Z,0.10
2019-03-19T01:46:55.542Z,0.10
2019-03-19T01:49:23.983Z,0.10
2019-03-19T01:51:52.479Z,0.10
2019-03-19T01:54:20.983Z,0.10
2019-03-19T01:56:49.464Z,0.20
2019-03-19T01:59:17.946Z,0.20
2019-03-19T02:01:46.427Z,0.30
2019-03-19T02:04:14.867Z,0.30
2019-03-19T02:06:43.421Z,0.30
2019-03-19T02:09:11.871Z,0.20
2019-03-19T02:11:40.580Z,0.30
2019-03-19T02:14:09.100Z,0.20
2019-03-19T02:16:37.557Z,0.20
2019-03-19T02:19:06.017Z,0.10
2019-03-19T02:21:34.487Z,0.10
2019-03-19T02:24:03.010Z,0.10
2019-03-19T02:26:31.437Z,0.10
2019-03-19T02:28:59.911Z,0.20
2019-03-19T02:31:28.413Z,0.20
2019-03-19T02:33:56.936Z,0.20
2019-03-19T02:36:25.449Z,0.30
2019-03-19T02:38:53.959Z,0.30
2019-03-19T02:41:22.405Z,0.30
2019-03-19T02:43:50.849Z,0.30
2019-03-19T02:46:19.294Z,0.30
2019-03-19T02:48:47.811Z,0.30
2019-03-19T02:51:16.255Z,0.40
2019-03-19T02:53:44.775Z,0.30
2019-03-19T02:56:13.213Z,0.40
2019-03-19T02:58:41.662Z,0.30
2019-03-19T03:01:10.113Z,0.30
2019-03-19T03:03:38.694Z,0.30
2019-03-19T03:06:07.122Z,0.30
2019-03-19T03:08:35.616Z,0.30
2019-03-19T03:11:04.160Z,0.30
2019-03-19T03:13:32.687Z,0.40
2019-03-19T03:16:01.143Z,0.30
2019-03-19T03:18:29.650Z,0.30
2019-03-19T03:20:58.157Z,0.30
2019-03-19T03:23:26.606Z,0.30
2019-03-19T03:25:55.044Z,0.30
2019-03-19T03:28:23.504Z,0.30
2019-03-19T03:30:51.996Z,0.30
2019-03-19T03:33:20.513Z,0.40
2019-03-19T03:35:49.038Z,0.40
2019-03-19T03:38:17.499Z,0.40
2019-03-19T03:40:45.979Z,0.30
2019-03-19T03:43:14.500Z,0.30
2019-03-19T03:45:42.983Z,0.20
2019-03-19T03:48:11.495Z,0.10
2019-03-19T03:50:39.950Z,0.10
2019-03-19T03:53:08.460Z,0.10
2019-03-19T03:55:36.918Z,0.10
2019-03-19T03:58:05.369Z,0.10
2019-03-19T04:00:33.942Z,0.10
2019-03-19T04:03:02.616Z,0.10
2019-03-19T04:05:31.067Z,0.10
2019-03-19T04:07:59.517Z,0.10
2019-03-19T04:10:28.041Z,0.20
2019-03-19T04:12:56.489Z,0.10
2019-03-19T04:15:24.993Z,0.10
2019-03-19T04:17:53.485Z,0.00
2019-03-19T04:20:21.988Z,-0.10
2019-03-19T04:22:50.455Z,-0.10
2019-03-19T04:25:18.971Z,-0.10
2019-03-19T04:27:47.454Z,-0.10
2019-03-19T04:30:17.310Z,-0.20
2019-03-19T04:32:45.844Z,-0.30
2019-03-19T04:35:14.322Z,-0.30
2019-03-19T04:37:42.879Z,-0.20
2019-03-19T04:40:12.848Z,-0.20
2019-03-19T04:42:41.314Z,-0.20
2019-03-19T04:45:11.101Z,-0.20
2019-03-19T04:47:39.594Z,-0.20
2019-03-19T04:50:12.752Z,-0.30
2019-03-19T04:52:41.471Z,-0.30
2019-03-19T04:55:11.565Z,-0.40
2019-03-19T04:57:40.024Z,-0.40
2019-03-19T05:00:14.072Z,-0.40
2019-03-19T05:02:42.532Z,-0.40
2019-03-19T05:05:12.106Z,-0.30
2019-03-19T05:07:40.577Z,-0.30
2019-03-19T05:10:13.945Z,-0.30
2019-03-19T05:12:42.429Z,-0.20
2019-03-19T05:15:11.181Z,-0.20
2019-03-19T05:17:39.622Z,-0.20
2019-03-19T05:20:15.882Z,-0.20
2019-03-19T05:22:44.355Z,-0.20
2019-03-19T05:25:12.983Z,-0.30
2019-03-19T05:27:41.510Z,-0.30
2019-03-19T05:30:13.997Z,-0.30
2019-03-19T05:32:42.944Z,-0.30
2019-03-19T05:35:11.410Z,-0.30
2019-03-19T05:37:39.873Z,-0.30
2019-03-19T05:40:10.823Z,-0.10
2019-03-19T05:42:39.324Z,-0.10
2019-03-19T05:45:10.948Z,-0.10
2019-03-19T05:47:40.614Z,-0.10
2019-03-19T05:50:12.298Z,0.00
2019-03-19T05:52:40.779Z,0.00
2019-03-19T05:55:10.283Z,0.10
2019-03-19T05:57:48.693Z,0.10
2019-03-19T06:00:20.415Z,0.10
2019-03-19T06:02:48.851Z,0.00
2019-03-19T06:05:17.315Z,0.00
2019-03-19T06:07:45.763Z,0.00
2019-03-19T06:10:14.626Z,0.10
2019-03-19T06:12:43.128Z,0.10
2019-03-19T06:15:15.223Z,0.20
2019-03-19T06:17:43.665Z,0.20
2019-03-19T06:20:14.343Z,0.20
2019-03-19T06:22:42.826Z,0.20
2019-03-19T06:25:12.160Z,0.20
2019-03-19T06:27:40.686Z,0.20
2019-03-19T06:30:16.807Z,0.30
2019-03-19T06:32:45.474Z,0.30
2019-03-19T06:35:14.868Z,0.30
2019-03-19T06:37:43.409Z,0.40
2019-03-19T06:40:14.973Z,0.50
2019-03-19T06:42:43.434Z,0.60
2019-03-19T06:45:14.960Z,0.50
2019-03-19T06:47:43.413Z,0.60
2019-03-19T06:50:14.947Z,0.50
2019-03-19T06:52:43.886Z,0.60
2019-03-19T06:55:13.490Z,0.60
2019-03-19T06:57:41.951Z,0.70
2019-03-19T07:00:18.267Z,0.80
2019-03-19T07:02:46.717Z,0.80
2019-03-19T07:05:16.533Z,0.90
2019-03-19T07:07:45.067Z,1.00
2019-03-19T07:10:14.560Z,1.00
2019-03-19T07:12:43.235Z,1.10
2019-03-19T07:15:13.811Z,1.10
2019-03-19T07:17:42.312Z,1.10
2019-03-19T07:20:28.019Z,1.00
2019-03-19T07:22:56.559Z,1.00
2019-03-19T07:25:25.007Z,1.00
2019-03-19T07:27:53.725Z,1.00
2019-03-19T07:30:28.578Z,1.00
2019-03-19T07:32:57.070Z,1.00
2019-03-19T07:35:25.522Z,0.90
2019-03-19T07:37:54.036Z,0.90
2019-03-19T07:40:22.491Z,0.90
2019-03-19T07:42:50.962Z,1.00
2019-03-19T07:45:20.628Z,1.00
2019-03-19T07:47:49.083Z,1.10
2019-03-19T07:50:19.686Z,1.10
2019-03-19T07:52:48.178Z,1.10
2019-03-19T07:55:16.621Z,1.10
2019-03-19T07:57:45.067Z,1.10
2019-03-19T08:00:18.084Z,1.10
2019-03-19T08:02:46.641Z,1.10
2019-03-19T08:05:15.383Z,1.20
2019-03-19T08:07:44.031Z,1.20
2019-03-19T08:10:13.711Z,1.40
2019-03-19T08:12:42.180Z,1.50
2019-03-19T08:15:12.853Z,1.60
2019-03-19T08:17:42.971Z,1.80
2019-03-19T08:20:15.519Z,1.90
2019-03-19T08:22:43.972Z,2.00
2019-03-19T08:25:14.456Z,1.90
2019-03-19T08:27:42.980Z,1.80
2019-03-19T08:30:16.634Z,1.90
2019-03-19T08:32:45.159Z,1.90
2019-03-19T08:35:13.642Z,1.90
2019-03-19T08:37:42.131Z,2.10
2019-03-19T08:40:14.698Z,2.20
2019-03-19T08:42:43.184Z,2.20
2019-03-19T08:45:22.916Z,2.30
2019-03-19T08:47:51.454Z,2.30
2019-03-19T08:50:23.477Z,2.30
2019-03-19T08:52:51.918Z,2.60
2019-03-19T08:55:20.367Z,2.60
2019-03-19T08:57:48.806Z,2.50
2019-03-19T09:00:19.373Z,2.60
2019-03-19T09:02:47.873Z,2.50
2019-03-19T09:05:16.345Z,2.50
2019-03-19T09:07:44.847Z,2.40
2019-03-19T09:10:16.856Z,2.50
2019-03-19T09:12:47.847Z,2.80
2019-03-19T09:15:16.995Z,3.10
2019-03-19T09:17:45.472Z,3.20
2019-03-19T09:20:17.046Z,3.40
2019-03-19T09:22:45.582Z,3.40
2019-03-19T09:25:14.102Z,3.30
2019-03-19T09:27:42.566Z,3.00
2019-03-19T09:30:18.490Z,2.60
2019-03-19T09:32:46.970Z,2.70
2019-03-19T09:35:15.458Z,2.70
2019-03-19T09:37:44.810Z,2.50
2019-03-19T09:40:20.993Z,2.30
2019-03-19T09:42:49.546Z,2.30
2019-03-19T09:45:18.341Z,2.40
2019-03-19T09:47:47.224Z,2.80
2019-03-19T09:50:21.447Z,3.30
2019-03-19T09:52:49.964Z,3.60
2019-03-19T09:55:18.428Z,3.80
2019-03-19T09:57:46.877Z,3.80
2019-03-19T10:00:19.947Z,3.50
2019-03-19T10:02:48.569Z,3.50
2019-03-19T10:05:17.221Z,3.80
2019-03-19T10:07:46.026Z,3.80
2019-03-19T10:10:17.542Z,3.60
2019-03-19T10:12:45.997Z,3.50
2019-03-19T10:15:14.879Z,3.40
2019-03-19T10:17:43.592Z,3.30
2019-03-19T10:20:17.996Z,3.50
2019-03-19T10:22:46.914Z,3.80
2019-03-19T10:25:16.315Z,3.90
2019-03-19T10:27:44.770Z,4.30
2019-03-19T10:30:15.687Z,4.40
2019-03-19T10:32:44.158Z,4.30
2019-03-19T10:35:13.020Z,4.20
2019-03-19T10:37:41.540Z,4.30
2019-03-19T10:40:15.243Z,4.20
2019-03-19T10:42:43.814Z,4.00
2019-03-19T10:45:23.030Z,3.80
2019-03-19T10:47:51.466Z,4.00
2019-03-19T10:50:24.858Z,4.00
2019-03-19T10:52:53.356Z,4.00
2019-03-19T10:55:21.804Z,3.80
2019-03-19T10:57:50.272Z,3.60
2019-03-19T11:00:22.582Z,3.60
2019-03-19T11:02:51.232Z,3.80
2019-03-19T11:05:20.592Z,3.70
2019-03-19T11:07:49.212Z,4.00
2019-03-19T11:10:18.580Z,4.20
2019-03-19T11:12:47.034Z,4.30
2019-03-19T11:15:17.880Z,4.30
2019-03-19T11:17:46.506Z,4.30
2019-03-19T11:20:17.000Z,4.40
2019-03-19T11:22:45.500Z,4.50
2019-03-19T11:25:16.449Z,4.70
2019-03-19T11:27:45.129Z,5.00
2019-03-19T11:30:18.559Z,5.50
2019-03-19T11:32:47.015Z,5.70
2019-03-19T11:35:15.682Z,5.70
2019-03-19T11:37:44.155Z,6.00
2019-03-19T11:40:15.355Z,5.90
2019-03-19T11:42:43.792Z,5.60
2019-03-19T11:45:20.340Z,5.40
2019-03-19T11:47:48.875Z,5.50
2019-03-19T11:50:26.266Z,5.30
2019-03-19T11:52:54.725Z,5.10
2019-03-19T11:55:23.296Z,5.00
2019-03-19T11:57:51.917Z,4.80
2019-03-19T12:00:29.389Z,5.00
2019-03-19T12:02:58.116Z,4.70
2019-03-19T12:05:26.557Z,4.60
2019-03-19T12:07:55.014Z,4.40
2019-03-19T12:10:23.478Z,4.30
2019-03-19T12:12:52.586Z,4.20
2019-03-19T12:15:21.044Z,4.20
2019-03-19T12:17:49.527Z,4.40
2019-03-19T12:20:20.536Z,4.60
2019-03-19T12:22:48.172Z,4.30
2019-03-19T12:25:16.644Z,4.10
2019-03-19T12:27:45.083Z,3.90
2019-03-19T12:30:22.430Z,3.90
2019-03-19T12:32:48.764Z,4.10
2019-03-19T12:35:18.742Z,4.30
2019-03-19T12:37:47.250Z,4.60
2019-03-19T12:40:22.436Z,5.00
2019-03-19T12:42:50.890Z,5.10
2019-03-19T12:45:20.459Z,5.50
2019-03-19T12:47:48.902Z,5.70
2019-03-19T12:50:19.882Z,5.90
2019-03-19T12:52:48.392Z,6.00
2019-03-19T12:55:16.896Z,5.80
2019-03-19T12:57:45.442Z,6.00
2019-03-19T13:00:16.085Z,6.30
2019-03-19T13:02:44.567Z,6.30
2019-03-19T13:05:13.919Z,6.80
2019-03-19T13:07:42.372Z,7.10
2019-03-19T13:10:13.819Z,7.50
2019-03-19T13:12:42.515Z,7.60
2019-03-19T13:15:19.381Z,7.70
2019-03-19T13:17:48.167Z,7.70
2019-03-19T13:20:17.442Z,7.50
2019-03-19T13:22:45.877Z,6.40
2019-03-19T13:25:24.158Z,5.80
2019-03-19T13:27:52.590Z,5.40
2019-03-19T13:30:29.392Z,5.10
2019-03-19T13:32:57.834Z,4.90
2019-03-19T13:35:26.299Z,5.00
2019-03-19T13:37:54.903Z,4.90
2019-03-19T13:40:23.359Z,5.20
2019-03-19T13:42:51.811Z,5.50
2019-03-19T13:45:24.011Z,6.30
2019-03-19T13:47:52.610Z,7.00
2019-03-19T13:50:21.819Z,7.50
2019-03-19T13:52:50.273Z,8.00
2019-03-19T13:55:20.957Z,8.50
2019-03-19T13:57:49.539Z,8.90
2019-03-19T14:00:18.622Z,9.20
2019-03-19T14:02:47.410Z,8.90
2019-03-19T14:05:16.402Z,8.70
2019-03-19T14:07:44.991Z,8.90
2019-03-19T14:10:17.039Z,9.60
2019-03-19T14:12:46.305Z,9.70
2019-03-19T14:15:25.030Z,10.00
2019-03-19T14:17:53.859Z,9.50
2019-03-19T14:20:22.311Z,9.70
2019-03-19T14:22:50.768Z,10.20
2019-03-19T14:25:19.483Z,10.50
2019-03-19T14:27:48.002Z,10.70
2019-03-19T14:30:17.686Z,10.10
2019-03-19T14:32:46.336Z,10.00
2019-03-19T14:35:14.963Z,10.00
2019-03-19T14:37:43.536Z,9.40
2019-03-19T14:40:17.764Z,8.70
2019-03-19T14:42:46.271Z,8.90
2019-03-19T14:45:15.986Z,9.00
2019-03-19T14:47:44.448Z,8.70
2019-03-19T14:50:16.859Z,8.50
2019-03-19T14:52:45.362Z,7.90
2019-03-19T14:55:14.225Z,8.50
2019-03-19T14:57:42.731Z,8.60
2019-03-19T15:00:14.066Z,8.10
2019-03-19T15:02:42.614Z,7.90
2019-03-19T15:05:12.674Z,7.10
2019-03-19T15:07:41.174Z,7.30
2019-03-19T15:10:12.272Z,7.60
2019-03-19T15:12:40.844Z,8.00
2019-03-19T15:15:16.118Z,8.00
2019-03-19T15:17:44.597Z,8.10
2019-03-19T15:20:20.921Z,7.80
2019-03-19T15:22:49.380Z,7.30
2019-03-19T15:25:17.813Z,6.70
2019-03-19T15:27:46.312Z,6.10
2019-03-19T15:30:21.763Z,5.60
2019-03-19T15:32:50.597Z,5.40
2019-03-19T15:35:19.125Z,6.10
2019-03-19T15:37:47.660Z,5.90
2019-03-19T15:40:16.973Z,5.70
2019-03-19T15:42:45.476Z,5.30
2019-03-19T15:45:15.754Z,5.00
2019-03-19T15:47:44.289Z,4.90
2019-03-19T15:50:14.937Z,4.80
2019-03-19T15:52:43.565Z,5.00
2019-03-19T15:55:15.380Z,5.30
2019-03-19T15:57:43.845Z,5.80
2019-03-19T16:00:19.223Z,6.20
2019-03-19T16:02:47.741Z,6.10
2019-03-19T16:05:16.262Z,5.80
2019-03-19T16:07:44.727Z,5.70
2019-03-19T16:10:17.780Z,5.80
2019-03-19T16:12:46.356Z,5.70
2019-03-19T16:15:21.626Z,5.40
2019-03-19T16:17:50.093Z,5.10
2019-03-19T16:20:20.424Z,4.90
2019-03-19T16:22:48.894Z,4.80
2019-03-19T16:25:17.411Z,4.60
2019-03-19T16:27:45.948Z,4.50
2019-03-19T16:30:16.229Z,4.40
2019-03-19T16:32:44.667Z,4.40
2019-03-19T16:35:13.436Z,4.30
2019-03-19T16:37:41.866Z,4.20
2019-03-19T16:40:18.198Z,4.20
2019-03-19T16:42:46.734Z,4.20
2019-03-19T16:45:17.821Z,4.10
2019-03-19T16:47:45.438Z,3.90
2019-03-19T16:50:20.727Z,3.90
2019-03-19T16:52:49.247Z,3.80
2019-03-19T16:55:19.711Z,3.70
2019-03-19T16:57:48.159Z,3.70
2019-03-19T17:00:19.030Z,3.80
2019-03-19T17:02:47.482Z,3.70
2019-03-19T17:05:17.311Z,3.70
2019-03-19T17:07:45.769Z,3.60
2019-03-19T17:10:16.073Z,3.50
2019-03-19T17:12:44.495Z,3.50
2019-03-19T17:15:16.942Z,3.50
2019-03-19T17:17:45.652Z,3.50
2019-03-19T17:20:15.598Z,3.50
2019-03-19T17:22:44.097Z,3.40
2019-03-19T17:25:15.622Z,3.20
2019-03-19T17:27:44.058Z,3.20
2019-03-19T17:30:17.279Z,3.10
2019-03-19T17:32:45.935Z,3.00
2019-03-19T17:35:14.413Z,2.80
2019-03-19T17:37:42.851Z,2.60
2019-03-19T17:40:14.942Z,2.50
2019-03-19T17:42:43.453Z,2.30
2019-03-19T17:45:14.423Z,2.10
2019-03-19T17:47:42.959Z,2.00
2019-03-19T17:50:16.841Z,1.90
2019-03-19T17:52:45.646Z,1.70
2019-03-19T17:55:14.155Z,1.60
2019-03-19T17:57:42.589Z,1.60
2019-03-19T18:00:22.355Z,1.60
2019-03-19T18:02:50.869Z,1.60
2019-03-19T18:05:19.312Z,1.40
2019-03-19T18:07:47.757Z,1.30
2019-03-19T18:10:16.254Z,1.20
2019-03-19T18:12:44.723Z,1.10
2019-03-19T18:15:14.702Z,1.00
2019-03-19T18:17:43.149Z,0.80
2019-03-19T18:20:13.718Z,0.70
2019-03-19T18:22:42.243Z,0.60
2019-03-19T18:25:12.514Z,0.50
2019-03-19T18:27:40.962Z,0.40
2019-03-19T18:30:20.246Z,0.30
2019-03-19T18:32:48.693Z,0.10
2019-03-19T18:35:17.432Z,0.10
2019-03-19T18:37:45.895Z,0.00
2019-03-19T18:40:15.453Z,0.10
2019-03-19T18:42:43.957Z,0.00
2019-03-19T18:45:13.850Z,-0.20
2019-03-19T18:47:42.303Z,-0.20
2019-03-19T18:50:18.374Z,-0.40
2019-03-19T18:52:46.814Z,-0.50
2019-03-19T18:55:15.447Z,-0.50
2019-03-19T18:57:43.907Z,-0.60
2019-03-19T19:00:14.511Z,-0.70
2019-03-19T19:02:49.889Z,-0.90
2019-03-19T19:05:15.248Z,-0.90
2019-03-19T19:07:43.846Z,-1.00
2019-03-19T19:10:14.390Z,-1.00
2019-03-19T19:12:42.838Z,-1.10
2019-03-19T19:15:15.085Z,-1.10
2019-03-19T19:17:43.542Z,-1.20
2019-03-19T19:20:14.525Z,-1.30
2019-03-19T19:22:43.047Z,-1.40
2019-03-19T19:25:18.919Z,-1.40
2019-03-19T19:27:47.363Z,-1.50
2019-03-19T19:30:26.366Z,-1.60
2019-03-19T19:33:01.401Z,-1.60
2019-03-19T19:35:25.012Z,-1.70
2019-03-19T19:37:53.485Z,-1.80
2019-03-19T19:40:22.021Z,-1.80
2019-03-19T19:42:50.557Z,-1.90
2019-03-19T19:45:19.577Z,-1.90
2019-03-19T19:47:48.023Z,-2.00
2019-03-19T19:50:17.610Z,-2.00
2019-03-19T19:52:46.311Z,-2.10
2019-03-19T19:55:15.172Z,-2.10
2019-03-19T19:57:43.900Z,-1.90
2019-03-19T20:00:20.256Z,-1.80
2019-03-19T20:02:48.700Z,-1.90
2019-03-19T20:05:17.227Z,-2.10
2019-03-19T20:07:45.746Z,-2.20
2019-03-19T20:10:19.297Z,-2.20
2019-03-19T20:12:47.734Z,-2.30
2019-03-19T20:15:16.269Z,-2.30
2019-03-19T20:17:44.771Z,-2.30
2019-03-19T20:20:25.016Z,-2.20
2019-03-19T20:22:53.478Z,-2.30
2019-03-19T20:25:21.928Z,-2.30
2019-03-19T20:27:50.368Z,-2.30
2019-03-19T20:30:23.063Z,-2.30
2019-03-19T20:32:51.504Z,-2.30
2019-03-19T20:35:19.940Z,-2.30
2019-03-19T20:37:48.387Z,-2.20
2019-03-19T20:40:17.074Z,-2.20
2019-03-19T20:42:45.818Z,-2.40
2019-03-19T20:45:19.437Z,-2.40
2019-03-19T20:47:47.950Z,-2.40
2019-03-19T20:50:19.035Z,-2.40
2019-03-19T20:52:47.932Z,-2.40
2019-03-19T20:55:16.379Z,-2.40
2019-03-19T20:57:44.864Z,-2.40
2019-03-19T21:00:15.563Z,-2.30
2019-03-19T21:02:44.016Z,-2.50
2019-03-19T21:05:12.722Z,-2.60
2019-03-19T21:07:41.175Z,-2.60
2019-03-19T21:10:17.703Z,-2.70
2019-03-19T21:12:46.161Z,-2.60
2019-03-19T21:15:22.753Z,-2.70
2019-03-19T21:17:51.216Z,-2.70
2019-03-19T21:20:19.660Z,-2.70
2019-03-19T21:22:48.346Z,-2.80
2019-03-19T21:25:16.892Z,-2.80
2019-03-19T21:27:45.436Z,-2.70
2019-03-19T21:30:18.572Z,-2.70
2019-03-19T21:32:47.005Z,-2.70
2019-03-19T21:35:17.037Z,-2.80
2019-03-19T21:37:45.475Z,-2.90
2019-03-19T21:40:14.781Z,-2.90
2019-03-19T21:42:43.255Z,-2.90
2019-03-19T21:45:13.208Z,-2.90
2019-03-19T21:47:41.662Z,-3.00
2019-03-19T21:50:12.922Z,-3.00
2019-03-19T21:52:41.370Z,-3.00
2019-03-19T21:55:11.159Z,-2.90
2019-03-19T21:57:39.618Z,-2.80
2019-03-19T22:00:11.345Z,-2.90
2019-03-19T22:02:39.877Z,-2.80
2019-03-19T22:05:09.349Z,-2.80
2019-03-19T22:07:37.810Z,-2.80
2019-03-19T22:10:14.156Z,-2.90
2019-03-19T22:12:42.610Z,-2.90
2019-03-19T22:15:13.941Z,-2.90
2019-03-19T22:17:42.523Z,-2.90
2019-03-19T22:20:11.056Z,-3.00
2019-03-19T22:22:39.565Z,-2.90
2019-03-19T22:25:10.269Z,-2.80
2019-03-19T22:27:38.724Z,-2.70
2019-03-19T22:30:10.148Z,-2.70
2019-03-19T22:32:38.605Z,-2.60
2019-03-19T22:35:07.394Z,-2.60
2019-03-19T22:37:35.851Z,-2.60
2019-03-19T22:40:07.396Z,-2.50
2019-03-19T22:42:36.133Z,-2.40
2019-03-19T22:45:07.729Z,-2.40
2019-03-19T22:47:36.188Z,-2.40
2019-03-19T22:50:07.473Z,-2.40
2019-03-19T22:52:35.939Z,-2.50
2019-03-19T22:55:06.442Z,-2.60
2019-03-19T22:57:34.901Z,-2.60
2019-03-19T23:00:04.957Z,-2.70
2019-03-19T23:02:33.418Z,-2.70
2019-03-19T23:05:01.874Z,-2.80
2019-03-19T23:07:30.346Z,-2.80
2019-03-19T23:09:58.810Z,-2.90
2019-03-19T23:12:27.319Z,-2.90
2019-03-19T23:14:55.808Z,-2.90
2019-03-19T23:17:24.264Z,-3.00
2019-03-19T23:19:52.720Z,-3.00
2019-03-19T23:22:21.162Z,-3.10
2019-03-19T23:24:49.605Z,-3.10
2019-03-19T23:27:18.052Z,-3.10
2019-03-19T23:29:46.538Z,-3.10
2019-03-19T23:32:15.060Z,-3.10
2019-03-19T23:34:43.502Z,-3.10
2019-03-19T23:37:11.951Z,-3.10
2019-03-19T23:39:40.398Z,-3.10
2019-03-19T23:42:08.867Z,-3.10
2019-03-19T23:44:37.314Z,-3.10
2019-03-19T23:47:05.775Z,-3.10
2019-03-19T23:49:34.299Z,-3.10
2019-03-19T23:52:02.806Z,-3.20
2019-03-19T23:54:31.261Z,-3.20
2019-03-19T23:56:59.723Z,-3.20
2019-03-19T23:59:28.203Z,-3.30
